sensor_id;sensor_type;location;lat;lon;timestamp;P1;durP1;ratioP1;P2;durP2;ratioP2
85682;SDS011;76253;52.232;5.176;2024-02-15T00:02:08;14.95;;;6.00;;
85682;SDS011;76253;52.232;5.176;2024-02-15T00:04:35;16.00;;;5.95;;
85682;SDS011;76253;52.232;5.176;2024-02-15T00:07:01;17.65;;;6.50;;
85682;SDS011;76253;52.232;5.176;2024-02-15T00:11:52;22.90;;;8.47;;
85682;SDS011;76253;52.232;5.176;2024-02-15T00:14:19;17.13;;;7.32;;
85682;SDS011;76253;52.232;5.176;2024-02-15T00:19:10;21.00;;;8.23;;
85682;SDS011;76253;52.232;5.176;2024-02-15T00:24:01;20.38;;;8.00;;
85682;SDS011;76253;52.232;5.176;2024-02-15T00:26:28;24.98;;;9.10;;
85682;SDS011;76253;52.232;5.176;2024-02-15T00:31:23;22.23;;;7.35;;
85682;SDS011;76253;52.232;5.176;2024-02-15T00:36:16;16.88;;;6.63;;
85682;SDS011;76253;52.232;5.176;2024-02-15T00:38:43;20.13;;;6.18;;
85682;SDS011;76253;52.232;5.176;2024-02-15T00:43:36;23.67;;;7.70;;
85682;SDS011;76253;52.232;5.176;2024-02-15T00:46:02;16.13;;;6.25;;
85682;SDS011;76253;52.232;5.176;2024-02-15T00:48:28;16.88;;;6.63;;
85682;SDS011;76253;52.232;5.176;2024-02-15T00:50:54;16.40;;;6.13;;
85682;SDS011;76253;52.232;5.176;2024-02-15T00:53:20;14.15;;;5.70;;
85682;SDS011;76253;52.232;5.176;2024-02-15T00:55:47;15.18;;;5.30;;
85682;SDS011;76253;52.232;5.176;2024-02-15T00:58:16;14.57;;;5.88;;
85682;SDS011;76253;52.232;5.176;2024-02-15T01:00:43;13.85;;;5.85;;
85682;SDS011;76253;52.232;5.176;2024-02-15T01:05:34;11.02;;;5.63;;
85682;SDS011;76253;52.232;5.176;2024-02-15T01:07:59;17.00;;;5.28;;
85682;SDS011;76253;52.232;5.176;2024-02-15T01:12:52;15.07;;;5.03;;
85682;SDS011;76253;52.232;5.176;2024-02-15T01:15:20;17.67;;;6.18;;
85682;SDS011;76253;52.232;5.176;2024-02-15T01:20:11;14.20;;;5.97;;
85682;SDS011;76253;52.232;5.176;2024-02-15T01:22:40;15.20;;;5.13;;
85682;SDS011;76253;52.232;5.176;2024-02-15T01:27:32;11.45;;;5.22;;
85682;SDS011;76253;52.232;5.176;2024-02-15T01:32:24;11.85;;;6.00;;
85682;SDS011;76253;52.232;5.176;2024-02-15T01:34:52;12.73;;;5.60;;
85682;SDS011;76253;52.232;5.176;2024-02-15T01:37:20;18.73;;;7.15;;
85682;SDS011;76253;52.232;5.176;2024-02-15T01:39:49;14.32;;;6.28;;
85682;SDS011;76253;52.232;5.176;2024-02-15T01:42:15;23.55;;;8.55;;
85682;SDS011;76253;52.232;5.176;2024-02-15T01:47:13;14.10;;;6.70;;
85682;SDS011;76253;52.232;5.176;2024-02-15T01:49:38;15.55;;;6.63;;
85682;SDS011;76253;52.232;5.176;2024-02-15T01:52:06;15.95;;;7.35;;
85682;SDS011;76253;52.232;5.176;2024-02-15T01:54:36;16.17;;;7.75;;
85682;SDS011;76253;52.232;5.176;2024-02-15T01:57:03;16.77;;;7.43;;
85682;SDS011;76253;52.232;5.176;2024-02-15T01:59:30;16.55;;;7.32;;
85682;SDS011;76253;52.232;5.176;2024-02-15T02:01:56;20.23;;;8.80;;
85682;SDS011;76253;52.232;5.176;2024-02-15T02:06:47;22.33;;;8.27;;
85682;SDS011;76253;52.232;5.176;2024-02-15T02:09:16;20.88;;;8.45;;
85682;SDS011;76253;52.232;5.176;2024-02-15T02:11:44;19.05;;;8.73;;
85682;SDS011;76253;52.232;5.176;2024-02-15T02:14:11;18.48;;;7.88;;
85682;SDS011;76253;52.232;5.176;2024-02-15T02:16:37;20.38;;;9.80;;
85682;SDS011;76253;52.232;5.176;2024-02-15T02:19:04;17.00;;;8.27;;
85682;SDS011;76253;52.232;5.176;2024-02-15T02:21:37;17.33;;;8.18;;
85682;SDS011;76253;52.232;5.176;2024-02-15T02:24:04;19.40;;;9.18;;
85682;SDS011;76253;52.232;5.176;2024-02-15T02:26:38;24.70;;;9.50;;
85682;SDS011;76253;52.232;5.176;2024-02-15T02:29:05;23.77;;;10.18;;
85682;SDS011;76253;52.232;5.176;2024-02-15T02:31:33;19.23;;;9.07;;
85682;SDS011;76253;52.232;5.176;2024-02-15T02:33:59;23.67;;;9.40;;
85682;SDS011;76253;52.232;5.176;2024-02-15T02:36:25;22.25;;;8.95;;
85682;SDS011;76253;52.232;5.176;2024-02-15T02:41:17;19.40;;;8.07;;
85682;SDS011;76253;52.232;5.176;2024-02-15T02:43:44;21.20;;;9.18;;
85682;SDS011;76253;52.232;5.176;2024-02-15T02:48:35;20.67;;;9.43;;
85682;SDS011;76253;52.232;5.176;2024-02-15T02:51:01;21.20;;;9.13;;
85682;SDS011;76253;52.232;5.176;2024-02-15T02:53:27;18.95;;;8.27;;
85682;SDS011;76253;52.232;5.176;2024-02-15T02:58:19;19.63;;;8.57;;
85682;SDS011;76253;52.232;5.176;2024-02-15T03:03:11;18.77;;;8.15;;
85682;SDS011;76253;52.232;5.176;2024-02-15T03:05:37;25.87;;;9.03;;
85682;SDS011;76253;52.232;5.176;2024-02-15T03:08:05;19.25;;;9.13;;
85682;SDS011;76253;52.232;5.176;2024-02-15T03:12:56;19.10;;;9.20;;
85682;SDS011;76253;52.232;5.176;2024-02-15T03:17:48;19.38;;;8.60;;
85682;SDS011;76253;52.232;5.176;2024-02-15T03:22:55;19.90;;;7.28;;
85682;SDS011;76253;52.232;5.176;2024-02-15T03:25:24;21.60;;;9.13;;
85682;SDS011;76253;52.232;5.176;2024-02-15T03:27:51;18.45;;;8.30;;
85682;SDS011;76253;52.232;5.176;2024-02-15T03:30:23;16.60;;;8.65;;
85682;SDS011;76253;52.232;5.176;2024-02-15T03:32:55;17.45;;;9.68;;
85682;SDS011;76253;52.232;5.176;2024-02-15T03:35:21;21.60;;;8.75;;
85682;SDS011;76253;52.232;5.176;2024-02-15T03:37:50;18.52;;;7.95;;
85682;SDS011;76253;52.232;5.176;2024-02-15T03:40:16;17.75;;;7.95;;
85682;SDS011;76253;52.232;5.176;2024-02-15T03:42:43;21.23;;;8.55;;
85682;SDS011;76253;52.232;5.176;2024-02-15T03:47:34;18.73;;;8.73;;
85682;SDS011;76253;52.232;5.176;2024-02-15T03:50:03;20.10;;;7.95;;
85682;SDS011;76253;52.232;5.176;2024-02-15T03:52:30;15.40;;;7.13;;
85682;SDS011;76253;52.232;5.176;2024-02-15T03:57:24;19.17;;;7.90;;
85682;SDS011;76253;52.232;5.176;2024-02-15T04:02:18;20.73;;;7.38;;
85682;SDS011;76253;52.232;5.176;2024-02-15T04:04:44;14.10;;;6.90;;
85682;SDS011;76253;52.232;5.176;2024-02-15T04:07:12;19.45;;;7.03;;
85682;SDS011;76253;52.232;5.176;2024-02-15T04:09:41;13.27;;;7.07;;
85682;SDS011;76253;52.232;5.176;2024-02-15T04:12:07;15.65;;;6.47;;
85682;SDS011;76253;52.232;5.176;2024-02-15T04:14:33;19.60;;;6.80;;
85682;SDS011;76253;52.232;5.176;2024-02-15T04:16:59;16.27;;;7.35;;
85682;SDS011;76253;52.232;5.176;2024-02-15T04:19:26;16.00;;;6.63;;
85682;SDS011;76253;52.232;5.176;2024-02-15T04:24:17;16.85;;;7.32;;
85682;SDS011;76253;52.232;5.176;2024-02-15T04:26:43;16.17;;;7.45;;
85682;SDS011;76253;52.232;5.176;2024-02-15T04:29:08;16.65;;;6.20;;
85682;SDS011;76253;52.232;5.176;2024-02-15T04:31:37;19.48;;;6.72;;
85682;SDS011;76253;52.232;5.176;2024-02-15T04:34:04;16.77;;;8.05;;
85682;SDS011;76253;52.232;5.176;2024-02-15T04:36:29;18.38;;;6.65;;
85682;SDS011;76253;52.232;5.176;2024-02-15T04:38:59;15.35;;;7.13;;
85682;SDS011;76253;52.232;5.176;2024-02-15T04:43:50;16.63;;;7.15;;
85682;SDS011;76253;52.232;5.176;2024-02-15T04:46:17;17.73;;;7.57;;
85682;SDS011;76253;52.232;5.176;2024-02-15T04:48:46;15.90;;;7.57;;
85682;SDS011;76253;52.232;5.176;2024-02-15T04:51:14;15.10;;;7.03;;
85682;SDS011;76253;52.232;5.176;2024-02-15T04:53:41;20.63;;;6.97;;
85682;SDS011;76253;52.232;5.176;2024-02-15T04:58:41;16.33;;;6.72;;
85682;SDS011;76253;52.232;5.176;2024-02-15T05:01:14;18.98;;;8.57;;
85682;SDS011;76253;52.232;5.176;2024-02-15T05:03:43;20.98;;;8.27;;
85682;SDS011;76253;52.232;5.176;2024-02-15T05:08:36;15.52;;;6.60;;
85682;SDS011;76253;52.232;5.176;2024-02-15T05:11:11;15.52;;;7.88;;
85682;SDS011;76253;52.232;5.176;2024-02-15T05:13:44;19.27;;;9.05;;
85682;SDS011;76253;52.232;5.176;2024-02-15T05:16:10;20.20;;;8.40;;
85682;SDS011;76253;52.232;5.176;2024-02-15T05:18:36;14.65;;;7.60;;
85682;SDS011;76253;52.232;5.176;2024-02-15T05:21:03;21.27;;;9.10;;
85682;SDS011;76253;52.232;5.176;2024-02-15T05:23:29;25.27;;;9.68;;
85682;SDS011;76253;52.232;5.176;2024-02-15T05:25:55;19.50;;;9.57;;
85682;SDS011;76253;52.232;5.176;2024-02-15T05:28:21;23.20;;;9.68;;
85682;SDS011;76253;52.232;5.176;2024-02-15T05:31:07;24.45;;;9.88;;
85682;SDS011;76253;52.232;5.176;2024-02-15T05:33:33;21.58;;;8.82;;
85682;SDS011;76253;52.232;5.176;2024-02-15T05:38:24;22.43;;;10.17;;
85682;SDS011;76253;52.232;5.176;2024-02-15T05:43:15;25.35;;;11.30;;
85682;SDS011;76253;52.232;5.176;2024-02-15T05:45:42;20.05;;;9.65;;
85682;SDS011;76253;52.232;5.176;2024-02-15T05:50:33;23.27;;;9.90;;
85682;SDS011;76253;52.232;5.176;2024-02-15T05:55:26;20.27;;;9.45;;
85682;SDS011;76253;52.232;5.176;2024-02-15T05:57:52;25.65;;;10.38;;
85682;SDS011;76253;52.232;5.176;2024-02-15T06:00:19;20.02;;;8.77;;
85682;SDS011;76253;52.232;5.176;2024-02-15T06:02:44;24.02;;;11.20;;
85682;SDS011;76253;52.232;5.176;2024-02-15T06:07:35;24.55;;;10.02;;
85682;SDS011;76253;52.232;5.176;2024-02-15T06:10:01;25.02;;;11.32;;
85682;SDS011;76253;52.232;5.176;2024-02-15T06:12:28;22.67;;;11.73;;
85682;SDS011;76253;52.232;5.176;2024-02-15T06:14:54;18.38;;;8.77;;
85682;SDS011;76253;52.232;5.176;2024-02-15T06:17:20;24.58;;;10.88;;
85682;SDS011;76253;52.232;5.176;2024-02-15T06:22:10;25.10;;;11.13;;
85682;SDS011;76253;52.232;5.176;2024-02-15T06:24:37;28.33;;;11.43;;
85682;SDS011;76253;52.232;5.176;2024-02-15T06:29:28;24.77;;;10.70;;
85682;SDS011;76253;52.232;5.176;2024-02-15T06:34:56;27.52;;;12.20;;
85682;SDS011;76253;52.232;5.176;2024-02-15T06:40:24;23.30;;;11.48;;
85682;SDS011;76253;52.232;5.176;2024-02-15T06:42:50;26.02;;;12.27;;
85682;SDS011;76253;52.232;5.176;2024-02-15T06:45:15;25.08;;;12.05;;
85682;SDS011;76253;52.232;5.176;2024-02-15T06:47:41;22.40;;;11.38;;
85682;SDS011;76253;52.232;5.176;2024-02-15T06:50:10;26.35;;;11.65;;
85682;SDS011;76253;52.232;5.176;2024-02-15T06:52:42;25.02;;;11.25;;
85682;SDS011;76253;52.232;5.176;2024-02-15T06:55:08;31.98;;;13.57;;
85682;SDS011;76253;52.232;5.176;2024-02-15T06:57:38;27.02;;;12.95;;
85682;SDS011;76253;52.232;5.176;2024-02-15T07:00:05;19.40;;;10.10;;
85682;SDS011;76253;52.232;5.176;2024-02-15T07:02:34;23.80;;;11.88;;
85682;SDS011;76253;52.232;5.176;2024-02-15T07:05:00;26.15;;;12.55;;
85682;SDS011;76253;52.232;5.176;2024-02-15T07:07:25;31.08;;;13.32;;
85682;SDS011;76253;52.232;5.176;2024-02-15T07:09:51;24.67;;;11.88;;
85682;SDS011;76253;52.232;5.176;2024-02-15T07:14:41;26.73;;;11.77;;
85682;SDS011;76253;52.232;5.176;2024-02-15T07:17:07;24.05;;;11.00;;
85682;SDS011;76253;52.232;5.176;2024-02-15T07:19:32;22.60;;;10.25;;
85682;SDS011;76253;52.232;5.176;2024-02-15T07:22:01;22.88;;;10.60;;
85682;SDS011;76253;52.232;5.176;2024-02-15T07:26:53;25.73;;;11.05;;
85682;SDS011;76253;52.232;5.176;2024-02-15T07:29:20;27.55;;;11.90;;
85682;SDS011;76253;52.232;5.176;2024-02-15T07:31:48;31.05;;;13.27;;
85682;SDS011;76253;52.232;5.176;2024-02-15T07:34:14;24.17;;;10.18;;
85682;SDS011;76253;52.232;5.176;2024-02-15T07:39:07;20.35;;;9.15;;
85682;SDS011;76253;52.232;5.176;2024-02-15T07:41:37;19.48;;;8.55;;
85682;SDS011;76253;52.232;5.176;2024-02-15T07:44:04;23.13;;;10.77;;
85682;SDS011;76253;52.232;5.176;2024-02-15T07:46:29;25.50;;;11.40;;
85682;SDS011;76253;52.232;5.176;2024-02-15T07:48:56;17.50;;;8.50;;
85682;SDS011;76253;52.232;5.176;2024-02-15T07:51:22;18.10;;;8.80;;
85682;SDS011;76253;52.232;5.176;2024-02-15T07:53:48;19.45;;;8.15;;
85682;SDS011;76253;52.232;5.176;2024-02-15T07:56:15;18.50;;;8.07;;
85682;SDS011;76253;52.232;5.176;2024-02-15T07:58:48;19.15;;;8.18;;
85682;SDS011;76253;52.232;5.176;2024-02-15T08:01:15;18.23;;;8.15;;
85682;SDS011;76253;52.232;5.176;2024-02-15T08:03:41;18.38;;;8.50;;
85682;SDS011;76253;52.232;5.176;2024-02-15T08:06:10;15.60;;;7.82;;
85682;SDS011;76253;52.232;5.176;2024-02-15T08:08:41;16.55;;;7.65;;
85682;SDS011;76253;52.232;5.176;2024-02-15T08:11:10;19.27;;;8.02;;
85682;SDS011;76253;52.232;5.176;2024-02-15T08:13:47;18.40;;;8.10;;
85682;SDS011;76253;52.232;5.176;2024-02-15T08:16:23;12.93;;;6.45;;
85682;SDS011;76253;52.232;5.176;2024-02-15T08:18:50;16.48;;;7.55;;
85682;SDS011;76253;52.232;5.176;2024-02-15T08:21:28;14.25;;;7.28;;
85682;SDS011;76253;52.232;5.176;2024-02-15T08:24:01;17.42;;;7.32;;
85682;SDS011;76253;52.232;5.176;2024-02-15T08:26:35;14.73;;;6.90;;
85682;SDS011;76253;52.232;5.176;2024-02-15T08:29:04;17.77;;;6.93;;
85682;SDS011;76253;52.232;5.176;2024-02-15T08:31:31;12.57;;;5.45;;
85682;SDS011;76253;52.232;5.176;2024-02-15T08:33:57;12.48;;;6.68;;
85682;SDS011;76253;52.232;5.176;2024-02-15T08:36:23;13.55;;;6.15;;
85682;SDS011;76253;52.232;5.176;2024-02-15T08:38:50;11.95;;;6.22;;
85682;SDS011;76253;52.232;5.176;2024-02-15T08:41:15;10.60;;;6.15;;
85682;SDS011;76253;52.232;5.176;2024-02-15T08:43:46;10.30;;;5.30;;
85682;SDS011;76253;52.232;5.176;2024-02-15T08:46:13;9.40;;;5.40;;
85682;SDS011;76253;52.232;5.176;2024-02-15T08:48:38;11.35;;;5.82;;
85682;SDS011;76253;52.232;5.176;2024-02-15T08:51:05;11.73;;;5.63;;
85682;SDS011;76253;52.232;5.176;2024-02-15T08:53:33;10.98;;;5.35;;
85682;SDS011;76253;52.232;5.176;2024-02-15T08:55:59;3.70;;;2.30;;
85682;SDS011;76253;52.232;5.176;2024-02-15T08:58:25;9.32;;;5.32;;
85682;SDS011;76253;52.232;5.176;2024-02-15T09:00:51;12.65;;;6.32;;
85682;SDS011;76253;52.232;5.176;2024-02-15T09:03:19;9.48;;;5.97;;
85682;SDS011;76253;52.232;5.176;2024-02-15T09:05:44;10.98;;;5.55;;
85682;SDS011;76253;52.232;5.176;2024-02-15T09:08:09;10.80;;;6.10;;
85682;SDS011;76253;52.232;5.176;2024-02-15T09:10:35;16.50;;;7.15;;
85682;SDS011;76253;52.232;5.176;2024-02-15T09:13:01;12.57;;;7.00;;
85682;SDS011;76253;52.232;5.176;2024-02-15T09:17:55;8.98;;;5.25;;
85682;SDS011;76253;52.232;5.176;2024-02-15T09:20:22;13.52;;;7.13;;
85682;SDS011;76253;52.232;5.176;2024-02-15T09:22:53;15.13;;;6.05;;
85682;SDS011;76253;52.232;5.176;2024-02-15T09:25:20;13.43;;;6.38;;
85682;SDS011;76253;52.232;5.176;2024-02-15T09:27:48;14.65;;;6.68;;
85682;SDS011;76253;52.232;5.176;2024-02-15T09:30:14;13.60;;;5.95;;
85682;SDS011;76253;52.232;5.176;2024-02-15T09:32:41;12.93;;;6.40;;
85682;SDS011;76253;52.232;5.176;2024-02-15T09:35:07;14.07;;;5.93;;
85682;SDS011;76253;52.232;5.176;2024-02-15T09:37:37;16.33;;;6.80;;
85682;SDS011;76253;52.232;5.176;2024-02-15T09:40:04;14.27;;;8.13;;
85682;SDS011;76253;52.232;5.176;2024-02-15T09:42:34;16.77;;;6.95;;
85682;SDS011;76253;52.232;5.176;2024-02-15T09:45:00;14.57;;;8.00;;
85682;SDS011;76253;52.232;5.176;2024-02-15T09:47:38;14.93;;;7.65;;
85682;SDS011;76253;52.232;5.176;2024-02-15T09:50:08;14.35;;;6.78;;
85682;SDS011;76253;52.232;5.176;2024-02-15T09:52:36;13.05;;;6.97;;
85682;SDS011;76253;52.232;5.176;2024-02-15T09:55:03;16.40;;;8.07;;
85682;SDS011;76253;52.232;5.176;2024-02-15T09:57:30;15.98;;;7.03;;
85682;SDS011;76253;52.232;5.176;2024-02-15T09:59:58;17.23;;;7.53;;
85682;SDS011;76253;52.232;5.176;2024-02-15T10:02:28;15.75;;;7.18;;
85682;SDS011;76253;52.232;5.176;2024-02-15T10:04:55;11.52;;;5.90;;
85682;SDS011;76253;52.232;5.176;2024-02-15T10:07:24;14.95;;;5.75;;
85682;SDS011;76253;52.232;5.176;2024-02-15T10:09:55;18.27;;;6.80;;
85682;SDS011;76253;52.232;5.176;2024-02-15T10:12:21;10.40;;;5.82;;
85682;SDS011;76253;52.232;5.176;2024-02-15T10:14:49;11.45;;;5.80;;
85682;SDS011;76253;52.232;5.176;2024-02-15T10:17:20;16.08;;;6.13;;
85682;SDS011;76253;52.232;5.176;2024-02-15T10:20:02;15.85;;;8.02;;
85682;SDS011;76253;52.232;5.176;2024-02-15T10:22:28;14.68;;;7.40;;
85682;SDS011;76253;52.232;5.176;2024-02-15T10:25:10;17.30;;;8.10;;
85682;SDS011;76253;52.232;5.176;2024-02-15T10:27:40;18.20;;;8.70;;
85682;SDS011;76253;52.232;5.176;2024-02-15T10:30:15;25.33;;;9.55;;
85682;SDS011;76253;52.232;5.176;2024-02-15T10:32:42;14.10;;;7.00;;
85682;SDS011;76253;52.232;5.176;2024-02-15T10:35:08;17.10;;;8.57;;
85682;SDS011;76253;52.232;5.176;2024-02-15T10:37:34;15.77;;;6.03;;
85682;SDS011;76253;52.232;5.176;2024-02-15T10:40:06;14.18;;;6.13;;
85682;SDS011;76253;52.232;5.176;2024-02-15T10:42:35;20.77;;;8.45;;
85682;SDS011;76253;52.232;5.176;2024-02-15T10:45:04;17.20;;;7.72;;
85682;SDS011;76253;52.232;5.176;2024-02-15T10:47:35;16.52;;;6.72;;
85682;SDS011;76253;52.232;5.176;2024-02-15T10:50:03;14.05;;;5.97;;
85682;SDS011;76253;52.232;5.176;2024-02-15T10:52:31;12.88;;;6.47;;
85682;SDS011;76253;52.232;5.176;2024-02-15T10:57:31;16.70;;;6.82;;
85682;SDS011;76253;52.232;5.176;2024-02-15T10:59:58;13.38;;;7.38;;
85682;SDS011;76253;52.232;5.176;2024-02-15T11:02:42;14.57;;;6.30;;
85682;SDS011;76253;52.232;5.176;2024-02-15T11:05:10;16.13;;;6.78;;
85682;SDS011;76253;52.232;5.176;2024-02-15T11:07:39;15.30;;;7.03;;
85682;SDS011;76253;52.232;5.176;2024-02-15T11:10:06;15.90;;;7.05;;
85682;SDS011;76253;52.232;5.176;2024-02-15T11:12:33;14.55;;;7.32;;
85682;SDS011;76253;52.232;5.176;2024-02-15T11:14:59;14.35;;;7.18;;
85682;SDS011;76253;52.232;5.176;2024-02-15T11:20:02;16.25;;;8.38;;
85682;SDS011;76253;52.232;5.176;2024-02-15T11:22:33;13.85;;;7.93;;
85682;SDS011;76253;52.232;5.176;2024-02-15T11:25:02;19.05;;;8.48;;
85682;SDS011;76253;52.232;5.176;2024-02-15T11:27:37;14.15;;;7.25;;
85682;SDS011;76253;52.232;5.176;2024-02-15T11:30:05;15.88;;;7.97;;
85682;SDS011;76253;52.232;5.176;2024-02-15T11:35:13;15.88;;;7.30;;
85682;SDS011;76253;52.232;5.176;2024-02-15T11:40:16;16.77;;;7.68;;
85682;SDS011;76253;52.232;5.176;2024-02-15T11:42:43;18.85;;;8.77;;
85682;SDS011;76253;52.232;5.176;2024-02-15T11:45:09;15.23;;;7.72;;
85682;SDS011;76253;52.232;5.176;2024-02-15T11:47:38;14.55;;;7.88;;
85682;SDS011;76253;52.232;5.176;2024-02-15T11:50:07;14.90;;;7.97;;
85682;SDS011;76253;52.232;5.176;2024-02-15T11:53:01;17.60;;;7.85;;
85682;SDS011;76253;52.232;5.176;2024-02-15T11:55:30;15.00;;;8.68;;
85682;SDS011;76253;52.232;5.176;2024-02-15T11:57:58;19.42;;;8.82;;
85682;SDS011;76253;52.232;5.176;2024-02-15T12:00:42;15.68;;;8.10;;
85682;SDS011;76253;52.232;5.176;2024-02-15T12:03:27;20.63;;;10.27;;
85682;SDS011;76253;52.232;5.176;2024-02-15T12:06:11;15.38;;;9.00;;
85682;SDS011;76253;52.232;5.176;2024-02-15T12:09:01;12.68;;;7.68;;
85682;SDS011;76253;52.232;5.176;2024-02-15T12:11:45;15.40;;;7.78;;
85682;SDS011;76253;52.232;5.176;2024-02-15T12:14:29;14.65;;;8.00;;
85682;SDS011;76253;52.232;5.176;2024-02-15T12:17:13;15.32;;;7.68;;
85682;SDS011;76253;52.232;5.176;2024-02-15T12:20:02;16.08;;;8.05;;
85682;SDS011;76253;52.232;5.176;2024-02-15T12:22:36;14.98;;;9.25;;
85682;SDS011;76253;52.232;5.176;2024-02-15T12:25:12;16.67;;;8.05;;
85682;SDS011;76253;52.232;5.176;2024-02-15T12:27:45;16.27;;;8.90;;
85682;SDS011;76253;52.232;5.176;2024-02-15T12:32:40;13.18;;;7.07;;
85682;SDS011;76253;52.232;5.176;2024-02-15T12:35:11;15.00;;;8.73;;
85682;SDS011;76253;52.232;5.176;2024-02-15T12:37:47;11.57;;;7.53;;
85682;SDS011;76253;52.232;5.176;2024-02-15T12:40:17;12.02;;;7.32;;
85682;SDS011;76253;52.232;5.176;2024-02-15T12:42:47;12.10;;;7.75;;
85682;SDS011;76253;52.232;5.176;2024-02-15T12:45:22;11.77;;;7.32;;
85682;SDS011;76253;52.232;5.176;2024-02-15T12:47:55;12.27;;;7.53;;
85682;SDS011;76253;52.232;5.176;2024-02-15T12:50:23;10.65;;;6.47;;
85682;SDS011;76253;52.232;5.176;2024-02-15T12:52:53;9.82;;;6.18;;
85682;SDS011;76253;52.232;5.176;2024-02-15T12:55:20;16.27;;;6.90;;
85682;SDS011;76253;52.232;5.176;2024-02-15T12:57:48;8.60;;;5.68;;
85682;SDS011;76253;52.232;5.176;2024-02-15T13:00:23;10.75;;;6.20;;
85682;SDS011;76253;52.232;5.176;2024-02-15T13:03:03;6.47;;;4.05;;
85682;SDS011;76253;52.232;5.176;2024-02-15T13:05:29;9.20;;;5.85;;
85682;SDS011;76253;52.232;5.176;2024-02-15T13:07:56;9.80;;;5.43;;
85682;SDS011;76253;52.232;5.176;2024-02-15T13:10:27;11.07;;;5.50;;
85682;SDS011;76253;52.232;5.176;2024-02-15T13:12:54;13.02;;;6.30;;
85682;SDS011;76253;52.232;5.176;2024-02-15T13:15:21;14.85;;;5.97;;
85682;SDS011;76253;52.232;5.176;2024-02-15T13:17:51;10.25;;;5.22;;
85682;SDS011;76253;52.232;5.176;2024-02-15T13:20:20;8.73;;;5.13;;
85682;SDS011;76253;52.232;5.176;2024-02-15T13:22:57;9.40;;;5.00;;
85682;SDS011;76253;52.232;5.176;2024-02-15T13:25:33;9.32;;;4.47;;
85682;SDS011;76253;52.232;5.176;2024-02-15T13:28:07;9.90;;;5.13;;
85682;SDS011;76253;52.232;5.176;2024-02-15T13:30:35;5.90;;;3.70;;
85682;SDS011;76253;52.232;5.176;2024-02-15T13:33:01;8.88;;;4.30;;
85682;SDS011;76253;52.232;5.176;2024-02-15T13:35:28;7.15;;;3.45;;
85682;SDS011;76253;52.232;5.176;2024-02-15T13:37:54;4.18;;;3.03;;
85682;SDS011;76253;52.232;5.176;2024-02-15T13:40:23;4.93;;;3.17;;
85682;SDS011;76253;52.232;5.176;2024-02-15T13:42:56;5.93;;;3.35;;
85682;SDS011;76253;52.232;5.176;2024-02-15T13:45:26;5.85;;;2.83;;
85682;SDS011;76253;52.232;5.176;2024-02-15T13:48:03;5.78;;;2.47;;
85682;SDS011;76253;52.232;5.176;2024-02-15T13:50:30;5.13;;;2.40;;
85682;SDS011;76253;52.232;5.176;2024-02-15T13:52:55;7.40;;;2.33;;
85682;SDS011;76253;52.232;5.176;2024-02-15T13:55:24;4.65;;;2.33;;
85682;SDS011;76253;52.232;5.176;2024-02-15T13:57:52;6.18;;;2.22;;
85682;SDS011;76253;52.232;5.176;2024-02-15T14:00:18;6.78;;;2.58;;
85682;SDS011;76253;52.232;5.176;2024-02-15T14:02:55;4.72;;;2.20;;
85682;SDS011;76253;52.232;5.176;2024-02-15T14:05:23;5.30;;;2.47;;
85682;SDS011;76253;52.232;5.176;2024-02-15T14:07:52;6.32;;;3.08;;
85682;SDS011;76253;52.232;5.176;2024-02-15T14:10:20;4.18;;;1.90;;
85682;SDS011;76253;52.232;5.176;2024-02-15T14:12:46;4.60;;;2.33;;
85682;SDS011;76253;52.232;5.176;2024-02-15T14:15:13;4.38;;;1.98;;
85682;SDS011;76253;52.232;5.176;2024-02-15T14:17:40;5.65;;;2.72;;
85682;SDS011;76253;52.232;5.176;2024-02-15T14:20:07;5.75;;;2.45;;
85682;SDS011;76253;52.232;5.176;2024-02-15T14:22:43;7.25;;;3.05;;
85682;SDS011;76253;52.232;5.176;2024-02-15T14:25:14;3.70;;;1.80;;
85682;SDS011;76253;52.232;5.176;2024-02-15T14:27:40;4.80;;;2.10;;
85682;SDS011;76253;52.232;5.176;2024-02-15T14:30:05;4.18;;;2.17;;
85682;SDS011;76253;52.232;5.176;2024-02-15T14:32:50;6.15;;;2.70;;
85682;SDS011;76253;52.232;5.176;2024-02-15T14:35:32;4.25;;;2.58;;
85682;SDS011;76253;52.232;5.176;2024-02-15T14:40:34;5.05;;;2.08;;
85682;SDS011;76253;52.232;5.176;2024-02-15T14:43:02;4.20;;;1.92;;
85682;SDS011;76253;52.232;5.176;2024-02-15T14:45:48;6.45;;;2.55;;
85682;SDS011;76253;52.232;5.176;2024-02-15T14:48:14;4.20;;;1.77;;
85682;SDS011;76253;52.232;5.176;2024-02-15T14:50:42;3.70;;;2.15;;
85682;SDS011;76253;52.232;5.176;2024-02-15T14:53:09;5.45;;;2.22;;
85682;SDS011;76253;52.232;5.176;2024-02-15T14:55:35;7.60;;;2.55;;
85682;SDS011;76253;52.232;5.176;2024-02-15T14:58:03;4.20;;;1.98;;
85682;SDS011;76253;52.232;5.176;2024-02-15T15:00:31;4.72;;;2.67;;
85682;SDS011;76253;52.232;5.176;2024-02-15T15:02:57;10.18;;;3.50;;
85682;SDS011;76253;52.232;5.176;2024-02-15T15:05:22;4.75;;;2.15;;
85682;SDS011;76253;52.232;5.176;2024-02-15T15:08:06;7.13;;;1.90;;
85682;SDS011;76253;52.232;5.176;2024-02-15T15:10:50;5.45;;;2.42;;
85682;SDS011;76253;52.232;5.176;2024-02-15T15:13:35;9.38;;;3.38;;
85682;SDS011;76253;52.232;5.176;2024-02-15T15:16:02;3.47;;;2.20;;
85682;SDS011;76253;52.232;5.176;2024-02-15T15:18:30;6.53;;;2.25;;
85682;SDS011;76253;52.232;5.176;2024-02-15T15:21:05;4.03;;;2.20;;
85682;SDS011;76253;52.232;5.176;2024-02-15T15:25:59;7.93;;;2.20;;
85682;SDS011;76253;52.232;5.176;2024-02-15T15:28:26;3.45;;;1.92;;
85682;SDS011;76253;52.232;5.176;2024-02-15T15:30:53;2.30;;;1.85;;
85682;SDS011;76253;52.232;5.176;2024-02-15T15:33:20;3.22;;;2.00;;
85682;SDS011;76253;52.232;5.176;2024-02-15T15:35:45;4.35;;;1.77;;
85682;SDS011;76253;52.232;5.176;2024-02-15T15:38:11;4.93;;;2.00;;
85682;SDS011;76253;52.232;5.176;2024-02-15T15:40:37;5.97;;;2.10;;
85682;SDS011;76253;52.232;5.176;2024-02-15T15:43:03;5.30;;;2.08;;
85682;SDS011;76253;52.232;5.176;2024-02-15T15:45:36;6.13;;;2.50;;
85682;SDS011;76253;52.232;5.176;2024-02-15T15:48:02;5.38;;;2.10;;
85682;SDS011;76253;52.232;5.176;2024-02-15T15:50:28;5.40;;;2.30;;
85682;SDS011;76253;52.232;5.176;2024-02-15T15:53:09;4.03;;;1.90;;
85682;SDS011;76253;52.232;5.176;2024-02-15T15:55:37;4.90;;;2.70;;
85682;SDS011;76253;52.232;5.176;2024-02-15T15:58:02;8.02;;;2.80;;
85682;SDS011;76253;52.232;5.176;2024-02-15T16:00:33;4.88;;;2.10;;
85682;SDS011;76253;52.232;5.176;2024-02-15T16:03:00;4.28;;;2.10;;
85682;SDS011;76253;52.232;5.176;2024-02-15T16:05:35;6.03;;;2.50;;
85682;SDS011;76253;52.232;5.176;2024-02-15T16:08:01;4.60;;;2.30;;
85682;SDS011;76253;52.232;5.176;2024-02-15T16:10:28;4.75;;;2.03;;
85682;SDS011;76253;52.232;5.176;2024-02-15T16:12:53;4.30;;;1.80;;
85682;SDS011;76253;52.232;5.176;2024-02-15T16:15:22;4.88;;;2.22;;
85682;SDS011;76253;52.232;5.176;2024-02-15T16:17:48;5.43;;;2.70;;
85682;SDS011;76253;52.232;5.176;2024-02-15T16:20:13;5.40;;;2.10;;
85682;SDS011;76253;52.232;5.176;2024-02-15T16:22:41;6.32;;;2.53;;
85682;SDS011;76253;52.232;5.176;2024-02-15T16:25:08;4.85;;;2.08;;
85682;SDS011;76253;52.232;5.176;2024-02-15T16:27:34;5.05;;;1.85;;
85682;SDS011;76253;52.232;5.176;2024-02-15T16:30:02;5.47;;;2.40;;
85682;SDS011;76253;52.232;5.176;2024-02-15T16:32:29;4.45;;;1.95;;
85682;SDS011;76253;52.232;5.176;2024-02-15T16:34:57;5.20;;;2.00;;
85682;SDS011;76253;52.232;5.176;2024-02-15T16:37:26;6.82;;;2.53;;
85682;SDS011;76253;52.232;5.176;2024-02-15T16:39:55;5.43;;;2.78;;
85682;SDS011;76253;52.232;5.176;2024-02-15T16:42:21;4.10;;;2.20;;